Time;durP1;ratioP1;P1;durP2;ratioP2;P2;SDS_P1;SDS_P2;PMS_P1;PMS_P2;Temp;Humidity;BMP_temperature;BMP_pressure;BME280_temperature;BME280_humidity;BME280_pressure;Samples;Min_cycle;Max_cycle;Signal;HPM_P1;HPM_P2
2023/12/28 00:01:21;;;;;;;;;;;6.40;86.20;;;;;;5115410;22;20056;-85
2023/12/28 00:07:18;;;;;;;;;;;6.40;86.10;;;;;;5166506;22;19907;-87
2023/12/28 00:10:11;;;;;;;;;;;6.50;86.20;;;;;;5193193;22;19938;-85
2023/12/28 00:12:39;;;;;;;;;;;6.50;86.20;;;;;;5189394;22;19908;-86
2023/12/28 00:14:59;;;;;;;;;;;6.50;86.30;;;;;;5192532;22;19903;-85
2023/12/28 00:17:52;;;;;;;;;;;6.60;86.50;;;;;;5192920;22;20327;-86
2023/12/28 00:29:11;;;;;;;;;;;6.60;86.80;;;;;;5192626;22;20535;-86
2023/12/28 00:33:42;;;;;;;;;;;6.70;86.60;;;;;;5178600;22;20147;-88
2023/12/28 00:36:48;;;;;;;;;;;6.70;86.40;;;;;;5171695;22;19908;-85
2023/12/28 00:39:11;;;;;;;;;;;6.70;87.10;;;;;;5167761;22;20003;-86
2023/12/28 00:41:32;;;;;;;;;;;6.90;87.00;;;;;;5197076;22;19903;-86
2023/12/28 00:44:11;;;;;;;;;;;6.90;87.30;;;;;;5195768;22;19907;-89
2023/12/28 00:46:39;;;;;;;;;;;6.90;87.10;;;;;;5164920;23;19904;-85
2023/12/28 00:49:18;;;;;;;;;;;7.00;87.30;;;;;;5195770;22;19908;-89
2023/12/28 00:51:38;;;;;;;;;;;7.00;87.10;;;;;;5196250;22;19903;-85
2023/12/28 00:57:18;;;;;;;;;;;7.10;87.20;;;;;;5171875;23;19904;-87
2023/12/28 01:02:58;;;;;;;;;;;7.10;87.30;;;;;;5120147;23;19919;-85
2023/12/28 01:05:20;;;;;;;;;;;7.20;87.20;;;;;;5117867;23;19915;-86
2023/12/28 01:07:41;;;;;;;;;;;7.20;87.30;;;;;;5117345;23;19951;-86
2023/12/28 01:10:02;;;;;;;;;;;7.30;87.20;;;;;;5128794;23;20284;-88
2023/12/28 01:12:25;;;;;;;;;;;7.20;87.30;;;;;;5170600;23;19911;-89
2023/12/28 01:14:48;;;;;;;;;;;7.30;87.20;;;;;;5148981;23;20007;-86
2023/12/28 01:17:12;;;;;;;;;;;7.30;87.20;;;;;;5172541;23;19902;-90
2023/12/28 01:19:39;;;;;;;;;;;7.50;87.20;;;;;;5171071;22;19983;-88
2023/12/28 01:22:08;;;;;;;;;;;7.40;87.10;;;;;;5148195;23;19951;-86
2023/12/28 01:24:29;;;;;;;;;;;7.40;87.10;;;;;;5167668;23;20572;-87
2023/12/28 01:26:50;;;;;;;;;;;7.50;86.90;;;;;;5145140;23;19908;-87
2023/12/28 01:29:15;;;;;;;;;;;7.60;86.80;;;;;;5146961;23;20394;-85
2023/12/28 01:31:38;;;;;;;;;;;7.50;86.70;;;;;;5191265;22;20001;-87
2023/12/28 01:34:02;;;;;;;;;;;7.60;87.30;;;;;;5151300;23;19962;-88
2023/12/28 01:36:23;;;;;;;;;;;7.60;86.60;;;;;;5148804;23;19932;-85
2023/12/28 01:38:44;;;;;;;;;;;7.60;86.40;;;;;;5170929;22;20511;-84
2023/12/28 01:41:04;;;;;;;;;;;7.70;86.40;;;;;;5148535;23;19912;-86
2023/12/28 01:43:18;;;;;;;;;;;7.60;86.30;;;;;;5144699;23;19908;-86
2023/12/28 01:45:19;;;;;;;;;;;7.70;86.30;;;;;;5169969;23;19910;-86
2023/12/28 01:47:26;;;;;;;;;;;7.60;86.20;;;;;;5163678;22;19930;-86
2023/12/28 01:49:27;;;;;;;;;;;7.70;86.20;;;;;;5164427;23;19912;-88
2023/12/28 01:51:51;;;;;;;;;;;7.80;86.20;;;;;;5145817;23;19980;-89
2023/12/28 01:54:19;;;;;;;;;;;7.70;86.00;;;;;;5143500;23;20142;-86
2023/12/28 01:56:20;;;;;;;;;;;7.70;86.00;;;;;;5193923;22;19907;-87
2023/12/28 01:58:22;;;;;;;;;;;7.80;86.00;;;;;;5167329;23;19904;-88
2023/12/28 02:00:24;;;;;;;;;;;7.80;86.00;;;;;;5165116;22;19927;-86
2023/12/28 02:02:45;;;;;;;;;;;7.80;86.00;;;;;;5166489;23;20014;-86
2023/12/28 02:05:05;;;;;;;;;;;7.80;85.90;;;;;;5147830;23;19911;-85
2023/12/28 02:07:27;;;;;;;;;;;7.80;85.90;;;;;;5145655;23;19943;-85
2023/12/28 02:09:50;;;;;;;;;;;7.90;86.00;;;;;;5171077;22;19991;-87
2023/12/28 02:12:11;;;;;;;;;;;7.80;85.90;;;;;;5168800;23;19911;-86
2023/12/28 02:14:31;;;;;;;;;;;7.90;85.90;;;;;;5194479;22;19911;-89
2023/12/28 02:16:53;;;;;;;;;;;7.90;85.80;;;;;;5167796;23;19904;-86
2023/12/28 02:19:39;;;;;;;;;;;7.90;85.70;;;;;;5189676;22;19907;-86
2023/12/28 02:22:00;;;;;;;;;;;7.90;85.70;;;;;;5171119;23;20414;-86
2023/12/28 02:24:32;;;;;;;;;;;7.90;85.60;;;;;;5188459;22;19934;-87
2023/12/28 02:26:59;;;;;;;;;;;7.90;85.50;;;;;;5145438;23;19912;-86
2023/12/28 02:29:28;;;;;;;;;;;7.90;85.40;;;;;;5185930;22;19916;-85
2023/12/28 02:31:56;;;;;;;;;;;7.80;85.30;;;;;;5187347;22;19908;-87
2023/12/28 02:34:20;;;;;;;;;;;7.90;85.30;;;;;;5168976;22;20200;-85
2023/12/28 02:36:44;;;;;;;;;;;8.00;85.40;;;;;;5168460;22;19908;-85
2023/12/28 02:39:05;;;;;;;;;;;8.00;85.30;;;;;;5189946;22;20456;-86
2023/12/28 02:41:26;;;;;;;;;;;8.00;85.30;;;;;;5190412;22;19907;-87
2023/12/28 02:43:50;;;;;;;;;;;8.10;85.40;;;;;;5148269;23;19934;-86
2023/12/28 02:45:51;;;;;;;;;;;8.00;85.30;;;;;;5165976;23;19907;-85
2023/12/28 02:47:57;;;;;;;;;;;8.00;85.20;;;;;;5141970;23;19939;-85
2023/12/28 02:50:06;;;;;;;;;;;8.00;85.10;;;;;;5169625;23;19912;-86
2023/12/28 02:52:15;;;;;;;;;;;8.10;85.20;;;;;;5143089;23;19908;-87
2023/12/28 02:54:29;;;;;;;;;;;8.10;85.20;;;;;;5169789;22;19955;-86
2023/12/28 02:56:50;;;;;;;;;;;8.00;85.10;;;;;;5143407;23;20601;-87
2023/12/28 02:58:51;;;;;;;;;;;8.10;85.20;;;;;;5142952;23;20366;-85
2023/12/28 03:01:12;;;;;;;;;;;8.00;85.10;;;;;;5167515;23;19908;-86
2023/12/28 03:03:32;;;;;;;;;;;8.00;85.00;;;;;;5190615;22;19918;-86
2023/12/28 03:05:53;;;;;;;;;;;8.00;85.00;;;;;;5146840;23;19955;-87
2023/12/28 03:08:14;;;;;;;;;;;8.10;85.00;;;;;;5148429;23;19907;-85
2023/12/28 03:10:16;;;;;;;;;;;8.10;85.00;;;;;;5116498;23;19904;-85
2023/12/28 03:12:36;;;;;;;;;;;8.10;84.90;;;;;;5167034;23;19918;-86
2023/12/28 03:14:57;;;;;;;;;;;8.10;84.90;;;;;;5191703;22;19963;-87
2023/12/28 03:17:18;;;;;;;;;;;8.10;84.80;;;;;;5146152;23;20439;-86
2023/12/28 03:19:38;;;;;;;;;;;8.20;84.80;;;;;;5168001;22;19910;-86
2023/12/28 03:22:15;;;;;;;;;;;8.20;84.80;;;;;;5144789;23;20835;-87
2023/12/28 03:24:38;;;;;;;;;;;8.20;84.70;;;;;;5171495;23;19908;-86
2023/12/28 03:26:59;;;;;;;;;;;8.20;84.70;;;;;;5146638;23;19911;-87
2023/12/28 03:29:17;;;;;;;;;;;8.20;84.70;;;;;;5144791;23;19937;-86
2023/12/28 03:31:33;;;;;;;;;;;8.20;84.60;;;;;;5195087;22;19946;-86
2023/12/28 03:33:34;;;;;;;;;;;8.20;84.60;;;;;;5143266;23;20667;-86
2023/12/28 03:35:55;;;;;;;;;;;8.10;84.60;;;;;;5140516;23;19911;-87
2023/12/28 03:38:16;;;;;;;;;;;8.20;84.50;;;;;;5168549;23;20353;-86
2023/12/28 03:40:36;;;;;;;;;;;8.20;85.20;;;;;;5169067;22;20341;-86
2023/12/28 03:42:57;;;;;;;;;;;8.20;84.50;;;;;;5144094;23;19912;-86
2023/12/28 03:45:17;;;;;;;;;;;8.30;84.60;;;;;;5150481;23;19951;-87
2023/12/28 03:47:38;;;;;;;;;;;8.30;84.60;;;;;;5145894;23;19980;-86
2023/12/28 03:49:59;;;;;;;;;;;8.20;85.20;;;;;;5165065;22;19912;-86
2023/12/28 03:52:19;;;;;;;;;;;8.30;84.60;;;;;;5147388;23;19908;-86
2023/12/28 03:54:20;;;;;;;;;;;8.20;84.40;;;;;;5169227;23;19985;-85
2023/12/28 03:56:24;;;;;;;;;;;8.30;84.40;;;;;;5168792;23;19931;-86
2023/12/28 03:58:30;;;;;;;;;;;8.30;84.40;;;;;;5169410;23;19934;-86
2023/12/28 04:00:31;;;;;;;;;;;8.30;84.30;;;;;;5119797;23;19908;-87
2023/12/28 04:02:32;;;;;;;;;;;8.30;84.30;;;;;;5194536;22;19908;-86
2023/12/28 04:04:52;;;;;;;;;;;8.30;84.30;;;;;;5173199;23;19915;-87
2023/12/28 04:07:07;;;;;;;;;;;8.40;84.20;;;;;;5143086;23;19912;-85
2023/12/28 04:09:28;;;;;;;;;;;8.30;84.10;;;;;;5170238;22;20351;-85
2023/12/28 04:12:01;;;;;;;;;;;8.30;84.10;;;;;;5189895;22;20354;-84
2023/12/28 04:14:22;;;;;;;;;;;8.30;84.10;;;;;;5187080;22;20374;-87
2023/12/28 04:16:42;;;;;;;;;;;8.40;84.00;;;;;;5145387;23;19962;-85
2023/12/28 04:18:49;;;;;;;;;;;8.30;83.80;;;;;;5170082;22;19994;-86
2023/12/28 04:21:20;;;;;;;;;;;8.30;83.90;;;;;;5170197;23;19962;-85
2023/12/28 04:23:41;;;;;;;;;;;8.30;83.80;;;;;;5169372;23;19918;-86
2023/12/28 04:26:02;;;;;;;;;;;8.40;83.80;;;;;;5143064;23;19912;-85
2023/12/28 04:28:22;;;;;;;;;;;8.20;83.50;;;;;;5145936;23;19908;-86
2023/12/28 04:30:43;;;;;;;;;;;8.30;83.60;;;;;;5145297;23;20294;-86
2023/12/28 04:33:16;;;;;;;;;;;8.20;83.50;;;;;;5150275;23;19908;-86
2023/12/28 04:35:37;;;;;;;;;;;8.30;83.50;;;;;;5186476;22;20391;-86
2023/12/28 04:37:58;;;;;;;;;;;8.20;83.40;;;;;;5165714;22;19903;-85
2023/12/28 04:40:24;;;;;;;;;;;8.30;83.50;;;;;;5144884;23;20443;-87
2023/12/28 04:42:45;;;;;;;;;;;8.20;83.30;;;;;;5184482;22;19910;-86
2023/12/28 04:45:15;;;;;;;;;;;8.30;83.40;;;;;;5144160;23;20328;-87
2023/12/28 04:47:36;;;;;;;;;;;8.20;83.30;;;;;;5140826;23;19915;-86
2023/12/28 04:50:15;;;;;;;;;;;8.20;83.20;;;;;;5162121;23;19939;-86
2023/12/28 04:52:36;;;;;;;;;;;8.30;83.30;;;;;;5163776;23;19911;-86
2023/12/28 04:55:02;;;;;;;;;;;8.20;83.30;;;;;;5139124;23;20350;-84
2023/12/28 04:57:30;;;;;;;;;;;8.20;83.20;;;;;;5167509;22;20355;-85
2023/12/28 04:59:51;;;;;;;;;;;8.10;83.30;;;;;;5145018;23;19921;-86
2023/12/28 05:02:12;;;;;;;;;;;8.20;83.30;;;;;;5170155;22;20291;-88
2023/12/28 05:04:39;;;;;;;;;;;8.20;83.60;;;;;;5148360;23;20505;-85
2023/12/28 05:07:02;;;;;;;;;;;8.20;83.60;;;;;;5171524;22;19915;-85
2023/12/28 05:09:23;;;;;;;;;;;8.20;83.70;;;;;;5147390;23;19939;-86
2023/12/28 05:11:43;;;;;;;;;;;8.10;83.80;;;;;;5168671;22;20401;-86
2023/12/28 05:14:05;;;;;;;;;;;8.10;83.90;;;;;;5168949;22;19935;-85
2023/12/28 05:16:44;;;;;;;;;;;8.20;84.10;;;;;;5108815;23;19904;-85
2023/12/28 05:18:45;;;;;;;;;;;8.20;84.00;;;;;;5167880;23;20319;-86
2023/12/28 05:20:48;;;;;;;;;;;8.30;84.10;;;;;;5166313;23;19915;-87
2023/12/28 05:22:49;;;;;;;;;;;8.20;83.90;;;;;;5142383;23;20319;-87
2023/12/28 05:25:02;;;;;;;;;;;8.30;84.00;;;;;;5192755;22;19914;-86
2023/12/28 05:27:04;;;;;;;;;;;8.30;84.00;;;;;;5142653;23;19908;-87
2023/12/28 05:29:04;;;;;;;;;;;8.30;84.10;;;;;;5168343;23;19915;-86
2023/12/28 05:31:25;;;;;;;;;;;8.40;84.00;;;;;;5146947;23;19966;-86
2023/12/28 05:33:26;;;;;;;;;;;8.40;84.00;;;;;;5193249;22;19977;-86
2023/12/28 05:35:48;;;;;;;;;;;8.40;84.00;;;;;;5168958;23;22396;-87
2023/12/28 05:37:51;;;;;;;;;;;8.40;83.90;;;;;;5187748;22;20002;-86
2023/12/28 05:40:12;;;;;;;;;;;8.40;83.90;;;;;;5167147;23;20481;-86
2023/12/28 05:42:38;;;;;;;;;;;8.40;83.90;;;;;;5167565;22;19921;-87
2023/12/28 05:44:59;;;;;;;;;;;8.50;83.90;;;;;;5186254;22;20379;-86
2023/12/28 05:46:59;;;;;;;;;;;8.60;83.90;;;;;;5142377;23;19904;-85
2023/12/28 05:49:20;;;;;;;;;;;8.60;83.80;;;;;;5168344;23;20351;-84
2023/12/28 05:51:41;;;;;;;;;;;8.60;83.80;;;;;;5167737;23;20410;-86
2023/12/28 05:54:01;;;;;;;;;;;8.60;83.70;;;;;;5188683;22;20478;-86
2023/12/28 05:56:22;;;;;;;;;;;8.50;83.70;;;;;;5170140;22;19914;-85
2023/12/28 05:58:54;;;;;;;;;;;8.60;83.60;;;;;;5144144;23;20652;-85
2023/12/28 06:01:14;;;;;;;;;;;8.60;83.50;;;;;;5168457;23;20339;-86
2023/12/28 06:03:41;;;;;;;;;;;8.60;83.30;;;;;;5147150;23;19912;-86
2023/12/28 06:06:02;;;;;;;;;;;8.60;83.40;;;;;;5146142;23;19918;-85
2023/12/28 06:08:22;;;;;;;;;;;8.60;83.40;;;;;;5146575;23;20161;-86
2023/12/28 06:10:43;;;;;;;;;;;8.70;83.40;;;;;;5146880;23;20522;-86
2023/12/28 06:13:07;;;;;;;;;;;8.70;83.30;;;;;;5145544;23;20359;-85
2023/12/28 06:15:27;;;;;;;;;;;8.70;83.20;;;;;;5144958;23;20348;-86
2023/12/28 06:17:48;;;;;;;;;;;8.80;83.20;;;;;;5168475;22;19907;-86
2023/12/28 06:20:09;;;;;;;;;;;8.80;83.20;;;;;;5145328;23;20580;-86
2023/12/28 06:22:35;;;;;;;;;;;8.70;83.10;;;;;;5165650;23;20450;-86
2023/12/28 06:24:56;;;;;;;;;;;8.80;83.00;;;;;;5142661;23;20350;-86
2023/12/28 06:26:57;;;;;;;;;;;8.80;82.90;;;;;;5139130;23;19908;-86
2023/12/28 06:28:58;;;;;;;;;;;8.80;82.80;;;;;;5165795;23;19975;-86
2023/12/28 06:31:04;;;;;;;;;;;8.90;82.80;;;;;;5140144;23;19914;-85
2023/12/28 06:33:24;;;;;;;;;;;8.80;82.50;;;;;;5187847;22;19913;-85
2023/12/28 06:35:37;;;;;;;;;;;8.90;82.40;;;;;;5117849;23;19966;-85
2023/12/28 06:37:58;;;;;;;;;;;8.90;82.00;;;;;;5142134;23;20400;-89
2023/12/28 06:40:19;;;;;;;;;;;8.80;82.30;;;;;;5145211;23;20349;-83
2023/12/28 06:42:50;;;;;;;;;;;8.90;82.30;;;;;;5164736;22;20429;-85
2023/12/28 06:45:27;;;;;;;;;;;8.90;82.00;;;;;;5182853;22;20493;-85
2023/12/28 06:47:48;;;;;;;;;;;8.90;81.90;;;;;;5146005;23;19904;-86
2023/12/28 06:50:08;;;;;;;;;;;9.10;81.90;;;;;;5165165;22;19932;-85
2023/12/28 06:52:31;;;;;;;;;;;9.00;81.70;;;;;;5144812;23;19936;-87
2023/12/28 06:54:53;;;;;;;;;;;9.10;81.60;;;;;;5150325;23;19947;-86
2023/12/28 06:57:33;;;;;;;;;;;9.10;81.50;;;;;;5192935;22;19958;-87
2023/12/28 06:59:54;;;;;;;;;;;9.00;81.60;;;;;;5146901;23;19904;-86
2023/12/28 07:02:15;;;;;;;;;;;9.10;81.30;;;;;;5174527;23;20351;-86
2023/12/28 07:04:44;;;;;;;;;;;9.10;81.30;;;;;;5173752;22;19927;-84
2023/12/28 07:06:47;;;;;;;;;;;9.20;81.10;;;;;;5147908;23;20488;-84
2023/12/28 07:08:49;;;;;;;;;;;9.10;80.90;;;;;;5172819;23;19990;-86
2023/12/28 07:11:11;;;;;;;;;;;9.10;80.90;;;;;;5173621;23;20343;-86
2023/12/28 07:13:44;;;;;;;;;;;9.10;81.00;;;;;;5151486;23;19956;-86
2023/12/28 07:16:07;;;;;;;;;;;9.10;80.90;;;;;;5173045;23;19954;-85
2023/12/28 07:18:28;;;;;;;;;;;9.10;80.80;;;;;;5150962;23;19915;-86
2023/12/28 07:20:48;;;;;;;;;;;9.10;80.60;;;;;;5193480;22;20219;-83
2023/12/28 07:23:09;;;;;;;;;;;9.20;80.80;;;;;;5174541;22;19903;-86
2023/12/28 07:25:30;;;;;;;;;;;9.10;80.60;;;;;;5148079;23;19927;-85
2023/12/28 07:27:58;;;;;;;;;;;9.20;80.80;;;;;;5165573;22;20389;-86
2023/12/28 07:30:21;;;;;;;;;;;9.20;80.70;;;;;;5140174;23;20509;-85
2023/12/28 07:32:42;;;;;;;;;;;9.20;80.70;;;;;;5143859;23;20291;-86
2023/12/28 07:35:11;;;;;;;;;;;9.20;80.60;;;;;;5165461;23;20518;-87
2023/12/28 07:37:24;;;;;;;;;;;9.20;80.60;;;;;;5188102;22;19904;-87
2023/12/28 07:39:28;;;;;;;;;;;9.20;80.50;;;;;;5163152;23;20446;-86
2023/12/28 07:41:28;;;;;;;;;;;9.20;80.50;;;;;;5164284;23;20343;-88
2023/12/28 07:43:30;;;;;;;;;;;9.30;80.40;;;;;;5137465;23;19900;-86
2023/12/28 07:45:53;;;;;;;;;;;9.20;80.40;;;;;;5162336;23;20266;-86
2023/12/28 07:47:54;;;;;;;;;;;9.30;80.40;;;;;;5138273;23;20294;-87
2023/12/28 07:50:06;;;;;;;;;;;9.30;80.40;;;;;;5158128;23;19911;-86
2023/12/28 07:52:07;;;;;;;;;;;9.30;80.00;;;;;;5139877;23;19900;-84
2023/12/28 07:54:55;;;;;;;;;;;9.30;80.00;;;;;;5161510;23;20323;-86
2023/12/28 07:57:44;;;;;;;;;;;9.30;80.10;;;;;;5161108;23;19908;-86
2023/12/28 08:00:05;;;;;;;;;;;9.40;80.00;;;;;;5164913;23;19903;-87
2023/12/28 08:02:40;;;;;;;;;;;9.40;80.00;;;;;;5184073;22;20383;-86
2023/12/28 08:05:21;;;;;;;;;;;9.30;79.80;;;;;;5162379;23;19916;-85
2023/12/28 08:07:53;;;;;;;;;;;9.40;79.70;;;;;;5142423;23;19969;-85
2023/12/28 08:10:16;;;;;;;;;;;9.40;79.60;;;;;;5140219;23;20434;-85
2023/12/28 08:12:37;;;;;;;;;;;9.40;79.60;;;;;;5144102;23;20464;-87
2023/12/28 08:15:03;;;;;;;;;;;9.40;79.70;;;;;;5166492;22;20150;-86
2023/12/28 08:17:33;;;;;;;;;;;9.50;79.70;;;;;;5164710;22;20247;-85
2023/12/28 08:20:07;;;;;;;;;;;;;;;;;;;;;
2023/12/28 08:22:46;;;;;;;;;;;;;;;;;;;;;
2023/12/28 08:25:16;;;;;;;;;;;9.50;79.50;;;;;;5164241;23;20358;-87
2023/12/28 08:27:42;;;;;;;;;;;9.60;79.60;;;;;;5165050;23;19946;-85
2023/12/28 08:30:06;;;;;;;;;;;9.50;79.30;;;;;;5141096;23;19980;-91
2023/12/28 08:32:52;;;;;;;;;;;;;;;;;;;;;
2023/12/28 08:35:13;;;;;;;;;;;9.50;79.20;;;;;;5164444;23;20123;-88
2023/12/28 08:37:33;;;;;;;;;;;9.50;79.20;;;;;;5141637;23;19938;-87
2023/12/28 08:39:55;;;;;;;;;;;9.60;79.20;;;;;;5141578;23;20287;-87
2023/12/28 08:42:16;;;;;;;;;;;9.50;79.20;;;;;;5140033;22;19922;-84
2023/12/28 08:44:43;;;;;;;;;;;9.60;79.20;;;;;;5142242;23;19923;-85
2023/12/28 08:47:19;;;;;;;;;;;9.50;79.80;;;;;;5141060;23;19919;-85
2023/12/28 08:49:33;;;;;;;;;;;;;;;;;;;;;
2023/12/28 08:51:37;;;;;;;;;;;9.60;79.00;;;;;;5139311;23;19962;-85
2023/12/28 08:53:54;;;;;;;;;;;9.60;78.90;;;;;;5140614;23;19968;-86
2023/12/28 08:56:21;;;;;;;;;;;9.60;79.00;;;;;;5140830;23;20447;-85
2023/12/28 08:58:54;;;;;;;;;;;9.60;78.90;;;;;;5143547;23;19964;-86
2023/12/28 09:01:39;;;;;;;;;;;9.60;79.10;;;;;;5135572;23;20218;-85
2023/12/28 09:04:01;;;;;;;;;;;9.60;78.90;;;;;;5138684;23;19908;-88
2023/12/28 09:06:27;;;;;;;;;;;9.60;78.90;;;;;;5139053;23;20380;-83
2023/12/28 09:08:52;;;;;;;;;;;9.70;79.00;;;;;;5141218;23;19912;-86
2023/12/28 09:11:19;;;;;;;;;;;9.60;78.70;;;;;;5141180;23;19908;-87
2023/12/28 09:13:52;;;;;;;;;;;9.70;78.80;;;;;;5137466;23;19904;-87
2023/12/28 09:16:22;;;;;;;;;;;9.60;78.50;;;;;;5138517;23;19900;-87
2023/12/28 09:18:54;;;;;;;;;;;9.60;78.50;;;;;;5140316;23;19904;-87
2023/12/28 09:21:12;;;;;;;;;;;9.70;78.60;;;;;;5139552;23;19923;-84
2023/12/28 09:23:24;;;;;;;;;;;9.70;78.60;;;;;;5136717;23;19904;-89
2023/12/28 09:25:26;;;;;;;;;;;9.80;78.70;;;;;;5140260;23;19911;-85
2023/12/28 09:28:04;;;;;;;;;;;9.70;78.50;;;;;;5138774;23;19908;-85
2023/12/28 09:30:28;;;;;;;;;;;9.70;78.50;;;;;;5139476;23;20369;-84
2023/12/28 09:32:53;;;;;;;;;;;9.70;78.40;;;;;;5119271;23;20320;-82
2023/12/28 09:35:55;;;;;;;;;;;9.70;78.50;;;;;;5140529;23;19904;-85
2023/12/28 09:38:26;;;;;;;;;;;9.60;78.60;;;;;;5139895;23;19920;-84
2023/12/28 09:40:52;;;;;;;;;;;9.60;78.50;;;;;;5127520;23;19976;-86
2023/12/28 09:43:27;;;;;;;;;;;9.70;78.50;;;;;;5140792;23;20378;-84
2023/12/28 09:45:53;;;;;;;;;;;9.60;78.40;;;;;;5138429;23;20487;-86
2023/12/28 09:48:23;;;;;;;;;;;9.70;78.60;;;;;;5139398;23;19900;-86
2023/12/28 09:50:44;;;;;;;;;;;9.70;78.60;;;;;;5137888;23;19911;-85
2023/12/28 09:52:45;;;;;;;;;;;9.50;78.20;;;;;;5138513;23;19904;-86
2023/12/28 09:55:04;;;;;;;;;;;9.60;78.30;;;;;;5137158;23;19991;-85
2023/12/28 10:00:02;;;;;;;;;;;9.60;78.30;;;;;;5118233;23;19912;-85
2023/12/28 10:04:14;;;;;;;;;;;9.60;78.30;;;;;;5186483;22;20255;-89
2023/12/28 10:06:35;;;;;;;;;;;9.60;78.30;;;;;;5166866;22;19999;-87
2023/12/28 10:08:56;;;;;;;;;;;9.60;78.80;;;;;;5166356;22;20335;-87
2023/12/28 10:11:17;;;;;;;;;;;9.60;78.90;;;;;;5167278;22;20315;-87
2023/12/28 10:13:48;;;;;;;;;;;9.50;79.00;;;;;;5141356;23;20390;-88
2023/12/28 10:16:27;;;;;;;;;;;9.50;79.20;;;;;;5142145;23;20404;-87
2023/12/28 10:18:51;;;;;;;;;;;9.50;79.20;;;;;;5143026;23;20356;-89
2023/12/28 10:21:12;;;;;;;;;;;9.40;79.40;;;;;;5166741;23;20328;-86
2023/12/28 10:23:12;;;;;;;;;;;9.50;80.10;;;;;;5163487;23;19903;-87
2023/12/28 10:25:18;;;;;;;;;;;9.50;80.50;;;;;;5161983;23;20395;-86
2023/12/28 10:27:40;;;;;;;;;;;9.50;80.60;;;;;;5134705;23;19908;-86
2023/12/28 10:29:43;;;;;;;;;;;9.50;80.80;;;;;;5135323;23;19911;-88
2023/12/28 10:32:04;;;;;;;;;;;9.50;80.80;;;;;;5160473;23;20366;-88
2023/12/28 10:34:27;;;;;;;;;;;9.50;81.10;;;;;;5163491;23;19912;-88
2023/12/28 10:36:39;;;;;;;;;;;9.50;80.90;;;;;;5164103;23;20315;-89
2023/12/28 10:39:00;;;;;;;;;;;9.50;81.00;;;;;;5139323;23;19908;-86
2023/12/28 10:41:13;;;;;;;;;;;9.40;81.00;;;;;;5162545;23;20377;-88
2023/12/28 10:43:17;;;;;;;;;;;9.50;81.10;;;;;;5136004;23;20364;-86
2023/12/28 10:45:23;;;;;;;;;;;9.40;81.30;;;;;;5133716;23;19982;-87
2023/12/28 10:47:31;;;;;;;;;;;9.50;81.40;;;;;;5134206;23;19939;-85
2023/12/28 10:49:58;;;;;;;;;;;9.40;81.50;;;;;;5159891;23;19986;-88
2023/12/28 10:52:31;;;;;;;;;;;9.40;81.90;;;;;;5156357;23;20340;-86
2023/12/28 10:55:13;;;;;;;;;;;9.50;81.90;;;;;;5143255;23;19908;-87
2023/12/28 10:57:58;;;;;;;;;;;9.30;81.90;;;;;;5168309;23;19904;-89
2023/12/28 11:00:20;;;;;;;;;;;9.40;82.10;;;;;;5135188;23;20286;-88
2023/12/28 11:05:30;;;;;;;;;;;9.40;82.20;;;;;;5163247;23;19934;-85
2023/12/28 11:07:54;;;;;;;;;;;9.40;82.10;;;;;;5138402;23;20532;-87
2023/12/28 11:10:43;;;;;;;;;;;9.40;81.80;;;;;;5139533;23;20354;-87
2023/12/28 11:13:15;;;;;;;;;;;9.40;81.60;;;;;;5158659;23;20401;-90
2023/12/28 11:16:23;;;;;;;;;;;9.40;81.50;;;;;;5160419;23;20402;-88
2023/12/28 11:18:56;;;;;;;;;;;9.40;81.70;;;;;;5137025;23;19995;-87
2023/12/28 11:21:31;;;;;;;;;;;9.40;81.80;;;;;;5133466;23;19962;-87
2023/12/28 11:23:52;;;;;;;;;;;9.40;82.10;;;;;;5139014;23;20682;-87
2023/12/28 11:26:17;;;;;;;;;;;9.40;82.20;;;;;;5140705;23;20364;-88
2023/12/28 11:28:51;;;;;;;;;;;9.40;82.20;;;;;;5160306;23;19907;-87
2023/12/28 11:30:57;;;;;;;;;;;9.40;82.30;;;;;;5135333;23;19954;-87
2023/12/28 11:32:59;;;;;;;;;;;9.40;82.30;;;;;;5109757;23;19958;-87
2023/12/28 11:35:00;;;;;;;;;;;9.50;82.30;;;;;;5109059;23;20293;-88
2023/12/28 11:37:03;;;;;;;;;;;9.50;82.20;;;;;;5134641;23;19908;-86
2023/12/28 11:39:07;;;;;;;;;;;9.40;82.10;;;;;;5133705;23;19908;-87
2023/12/28 11:41:16;;;;;;;;;;;9.40;82.20;;;;;;5109913;23;19966;-85
2023/12/28 11:43:19;;;;;;;;;;;9.50;82.30;;;;;;5160189;23;20661;-86
2023/12/28 11:45:22;;;;;;;;;;;9.40;82.30;;;;;;5159097;23;19915;-88
2023/12/28 11:47:29;;;;;;;;;;;9.40;82.20;;;;;;5134343;23;19944;-87
2023/12/28 11:49:33;;;;;;;;;;;9.40;82.20;;;;;;5132017;23;19912;-87
2023/12/28 11:51:41;;;;;;;;;;;9.40;82.10;;;;;;5134928;23;20024;-87
2023/12/28 11:53:48;;;;;;;;;;;9.40;82.00;;;;;;5110577;23;19937;-87
2023/12/28 11:55:51;;;;;;;;;;;9.50;82.20;;;;;;5134504;23;20340;-83
2023/12/28 11:57:52;;;;;;;;;;;9.50;82.10;;;;;;5159959;23;19907;-85
2023/12/28 11:59:53;;;;;;;;;;;9.50;82.30;;;;;;5162520;23;19904;-85
2023/12/28 12:08:35;;;;;;;;;;;9.50;82.20;;;;;;5086633;23;19932;-84
2023/12/28 12:11:08;;;;;;;;;;;9.40;82.10;;;;;;5087983;23;19959;-84
2023/12/28 12:15:33;;;;;;;;;;;9.40;82.10;;;;;;5189308;22;19934;-86
2023/12/28 12:17:39;;;;;;;;;;;9.40;82.20;;;;;;5164279;22;20254;-85
2023/12/28 12:20:02;;;;;;;;;;;9.30;82.30;;;;;;5169238;22;20367;-84
2023/12/28 12:22:23;;;;;;;;;;;9.40;82.40;;;;;;5158723;23;19975;-85
2023/12/28 12:24:44;;;;;;;;;;;9.40;82.50;;;;;;5143665;23;20363;-87
2023/12/28 12:27:05;;;;;;;;;;;9.30;82.10;;;;;;5144770;23;20265;-83
2023/12/28 12:29:25;;;;;;;;;;;9.30;82.40;;;;;;5139533;23;20366;-85
2023/12/28 12:34:10;;;;;;;;;;;9.30;82.50;;;;;;5167122;23;19934;-84
2023/12/28 12:36:10;;;;;;;;;;;9.40;82.60;;;;;;5140436;23;19981;-84
2023/12/28 12:38:11;;;;;;;;;;;9.40;82.60;;;;;;5165508;23;20339;-83
2023/12/28 12:40:12;;;;;;;;;;;9.40;82.70;;;;;;5137994;23;19908;-85
2023/12/28 12:42:16;;;;;;;;;;;9.40;82.50;;;;;;5137517;23;19912;-83
2023/12/28 12:47:22;;;;;;;;;;;9.30;82.20;;;;;;5165210;23;20353;-85
2023/12/28 12:52:12;;;;;;;;;;;9.40;82.40;;;;;;5165503;23;19904;-84
2023/12/28 12:54:18;;;;;;;;;;;9.40;82.30;;;;;;5140019;23;19904;-82
2023/12/28 12:56:19;;;;;;;;;;;9.40;82.20;;;;;;5164139;23;19907;-85
2023/12/28 12:58:21;;;;;;;;;;;9.50;82.20;;;;;;5139286;23;20626;-84
2023/12/28 13:00:22;;;;;;;;;;;9.40;82.10;;;;;;5138443;23;19926;-85
2023/12/28 13:02:23;;;;;;;;;;;9.40;82.10;;;;;;5163382;23;20512;-83
2023/12/28 13:04:40;;;;;;;;;;;;;;;;;;;;;
2023/12/28 13:10:55;;;;;;;;;;;9.40;82.10;;;;;;5108896;23;19971;-84
2023/12/28 13:13:06;;;;;;;;;;;9.40;82.10;;;;;;5060049;23;19939;-85
2023/12/28 13:15:09;;;;;;;;;;;9.40;82.00;;;;;;5108820;23;20325;-85
2023/12/28 13:17:10;;;;;;;;;;;9.40;81.90;;;;;;5160878;23;19939;-85
2023/12/28 13:26:30;;;;;;;;;;;9.30;81.10;;;;;;5155474;22;20279;-84
2023/12/28 13:28:30;;;;;;;;;;;9.40;81.10;;;;;;5161541;23;19907;-86
2023/12/28 13:30:31;;;;;;;;;;;9.30;81.10;;;;;;5134287;23;20492;-86
2023/12/28 13:32:35;;;;;;;;;;;9.30;81.10;;;;;;5135517;23;19949;-88
2023/12/28 13:34:36;;;;;;;;;;;9.30;81.10;;;;;;5163347;22;19927;-86
2023/12/28 13:36:42;;;;;;;;;;;9.40;81.20;;;;;;5137189;23;20419;-86
2023/12/28 13:38:52;;;;;;;;;;;9.40;81.20;;;;;;5136111;23;20308;-87
2023/12/28 13:41:13;;;;;;;;;;;9.30;81.30;;;;;;5140924;23;19939;-87
2023/12/28 13:43:13;;;;;;;;;;;9.40;81.30;;;;;;5110836;23;20257;-87
2023/12/28 13:45:16;;;;;;;;;;;9.40;81.40;;;;;;5134989;23;19908;-86
2023/12/28 13:47:37;;;;;;;;;;;9.30;81.20;;;;;;5161959;23;19923;-87
2023/12/28 13:50:00;;;;;;;;;;;9.30;81.40;;;;;;5139489;23;20260;-88
2023/12/28 13:52:21;;;;;;;;;;;9.30;81.60;;;;;;5140678;23;20333;-86
2023/12/28 13:54:42;;;;;;;;;;;9.30;81.50;;;;;;5161321;23;20268;-85
2023/12/28 13:57:02;;;;;;;;;;;9.20;81.60;;;;;;5162504;23;20287;-87
2023/12/28 13:59:03;;;;;;;;;;;9.20;81.90;;;;;;5136055;23;19919;-88
2023/12/28 14:01:09;;;;;;;;;;;9.20;82.00;;;;;;5135836;23;19915;-85
2023/12/28 14:03:13;;;;;;;;;;;9.20;82.10;;;;;;5113056;23;19908;-87
2023/12/28 14:05:17;;;;;;;;;;;9.20;82.30;;;;;;5108902;23;19920;-88
2023/12/28 14:07:18;;;;;;;;;;;9.20;82.30;;;;;;5162144;22;20334;-87
2023/12/28 14:09:44;;;;;;;;;;;9.20;82.30;;;;;;5134025;23;20190;-87
2023/12/28 14:12:18;;;;;;;;;;;9.20;82.60;;;;;;5110817;23;19908;-87
2023/12/28 14:14:41;;;;;;;;;;;9.20;82.80;;;;;;5109151;23;19911;-88
2023/12/28 14:16:53;;;;;;;;;;;9.20;82.80;;;;;;5135034;23;19973;-88
2023/12/28 14:18:56;;;;;;;;;;;9.00;82.80;;;;;;5107782;23;19908;-88
2023/12/28 14:20:57;;;;;;;;;;;9.20;83.20;;;;;;5135288;23;19903;-87
2023/12/28 14:22:57;;;;;;;;;;;9.20;83.10;;;;;;5109693;23;20026;-89
2023/12/28 14:24:59;;;;;;;;;;;9.20;83.20;;;;;;5136626;23;20245;-88
2023/12/28 14:26:59;;;;;;;;;;;9.10;83.30;;;;;;5103684;23;19948;-87
2023/12/28 14:29:05;;;;;;;;;;;9.20;83.60;;;;;;5135929;23;20292;-87
2023/12/28 14:31:12;;;;;;;;;;;9.20;83.60;;;;;;5111675;23;20252;-89
2023/12/28 14:33:13;;;;;;;;;;;9.20;83.80;;;;;;5160523;22;19914;-88
2023/12/28 14:35:19;;;;;;;;;;;9.20;83.80;;;;;;5136943;23;19912;-88
2023/12/28 14:37:20;;;;;;;;;;;9.20;83.80;;;;;;5111821;23;20230;-87
2023/12/28 14:39:22;;;;;;;;;;;9.20;83.80;;;;;;5134353;23;19935;-90
2023/12/28 14:41:23;;;;;;;;;;;9.20;83.80;;;;;;5111834;23;20558;-89